Aérodrome :
LOGIN :

S'inscrire | Disclaimer

   EN    FR    IT 

 










Légende :    VFR   VFR Marginal   IFR   IFR Intensif   IFR Très Intensif
Visi : 
Plafond : 
>= 8 km
>= 3000ft
5 à 8 km
1000 à 3000 ft
1500m à 5 km
500 à 1000 ft
800 à 1500m
200 à 500 ft
< 800m
< 200 ft
Symboles :   Orages  Brouillard  Fortes neiges  Fortes précipitations  Vent > 20 kt
SIGMETs :   Divers  Orages  Givrage  Turbulence  Onde Orograph.  Cendres Volcan.






- Altitude de l'aérodrome : 1058 ft
- Code IATA : SCN


EDDR - Saarbrücken

DERNIER METAR :
  • 252120Z 17006KT 140V210 9999 FEW007 10/09 Q1005 TEMPO RA

METARs EXPIRÉS :
  • 252050Z 13005KT 9999 -RA FEW006 09/09 Q1005 TEMPO RA
  • 252020Z 21004KT 9999 -RA FEW006 SCT025 10/09 Q1005 TEMPO RA
  • 251950Z 20003KT 160V260 9999 -RA FEW048 10/09 Q1005 TEMPO RA
  • 251920Z 14006KT 120V180 9999 -RA FEW045 10/09 Q1005 TEMPO RA
  • 251850Z 16005KT 130V200 9999 -RA FEW045 10/09 Q1005 TEMPO RA

TAF TAF EDDR
Valide du 25 à 18h jusqu'au 26 à 18h UTC


251700Z 2518/2618 24005KT 9999 BKN035
TEMPO 2518/2521 RA BKN012
BECMG 2521/2524 BKN012
TEMPO 2521/2610 4000 RA BKN008
BECMG 2608/2610 24010KT
BECMG 2611/2613 BKN030



MET'MAP, la Météo Aéronautique d'un coup d'oeil ! - Copyright ORBIFLY Décembre 2007 - Disclaimer

ORBIFLY MET'MAP TEAM :

Programmation & Développement : Alexandra Zaïnal
Sur une idée originale de : Baudouin d'Aumeries
Assistance à la programmation : Marc-Olivier Méhu
Soutien technique & logistique : Manuel Goepfert

Contact : metmap@orbifly.com




SOURCES & CREDITS :

   NOAA